sensor_id;sensor_type;location;lat;lon;timestamp;temperature;humidity
42715;DHT22;28351;51.480;5.706;2023-12-28T00:00:44;10.00;99.90
42715;DHT22;28351;51.480;5.706;2023-12-28T00:03:12;10.00;99.90
42715;DHT22;28351;51.480;5.706;2023-12-28T00:05:39;10.10;99.90
42715;DHT22;28351;51.480;5.706;2023-12-28T00:08:05;10.20;99.90
42715;DHT22;28351;51.480;5.706;2023-12-28T00:10:31;10.10;99.90
42715;DHT22;28351;51.480;5.706;2023-12-28T00:13:07;10.10;99.90
42715;DHT22;28351;51.480;5.706;2023-12-28T00:15:39;10.10;99.90
42715;DHT22;28351;51.480;5.706;2023-12-28T00:18:06;10.00;99.90
42715;DHT22;28351;51.480;5.706;2023-12-28T00:20:31;10.00;99.90
42715;DHT22;28351;51.480;5.706;2023-12-28T00:22:58;10.00;99.90
42715;DHT22;28351;51.480;5.706;2023-12-28T00:25:31;10.00;99.90
42715;DHT22;28351;51.480;5.706;2023-12-28T00:27:58;10.00;99.90
42715;DHT22;28351;51.480;5.706;2023-12-28T00:30:24;10.00;99.90
42715;DHT22;28351;51.480;5.706;2023-12-28T00:33:00;10.00;99.90
42715;DHT22;28351;51.480;5.706;2023-12-28T00:35:26;10.00;99.90
42715;DHT22;28351;51.480;5.706;2023-12-28T00:37:58;10.10;99.90
42715;DHT22;28351;51.480;5.706;2023-12-28T00:40:33;10.20;99.90
42715;DHT22;28351;51.480;5.706;2023-12-28T00:42:59;10.10;99.90
42715;DHT22;28351;51.480;5.706;2023-12-28T00:45:27;10.10;99.90
42715;DHT22;28351;51.480;5.706;2023-12-28T00:47:59;10.20;99.90
42715;DHT22;28351;51.480;5.706;2023-12-28T00:50:31;10.20;99.90
42715;DHT22;28351;51.480;5.706;2023-12-28T00:53:01;10.20;99.90
42715;DHT22;28351;51.480;5.706;2023-12-28T00:55:27;10.20;99.90
42715;DHT22;28351;51.480;5.706;2023-12-28T00:57:53;10.20;99.90
42715;DHT22;28351;51.480;5.706;2023-12-28T01:00:20;10.20;99.90
42715;DHT22;28351;51.480;5.706;2023-12-28T01:02:53;10.10;99.90
42715;DHT22;28351;51.480;5.706;2023-12-28T01:05:20;10.10;99.90
42715;DHT22;28351;51.480;5.706;2023-12-28T01:07:49;10.00;99.90
42715;DHT22;28351;51.480;5.706;2023-12-28T01:10:20;10.10;99.90
42715;DHT22;28351;51.480;5.706;2023-12-28T01:12:45;10.10;99.90
42715;DHT22;28351;51.480;5.706;2023-12-28T01:15:13;10.20;99.90
42715;DHT22;28351;51.480;5.706;2023-12-28T01:17:39;10.10;99.90
42715;DHT22;28351;51.480;5.706;2023-12-28T01:20:06;10.10;99.90
42715;DHT22;28351;51.480;5.706;2023-12-28T01:22:37;10.20;99.90
42715;DHT22;28351;51.480;5.706;2023-12-28T01:25:03;10.30;99.90
42715;DHT22;28351;51.480;5.706;2023-12-28T01:27:29;10.20;99.90
42715;DHT22;28351;51.480;5.706;2023-12-28T01:29:55;10.20;99.90
42715;DHT22;28351;51.480;5.706;2023-12-28T01:32:22;10.20;99.90
42715;DHT22;28351;51.480;5.706;2023-12-28T01:34:48;10.30;99.90
42715;DHT22;28351;51.480;5.706;2023-12-28T01:37:14;10.40;99.90
42715;DHT22;28351;51.480;5.706;2023-12-28T01:39:40;10.30;99.90
42715;DHT22;28351;51.480;5.706;2023-12-28T01:42:06;10.40;99.90
42715;DHT22;28351;51.480;5.706;2023-12-28T01:44:32;10.30;99.90
42715;DHT22;28351;51.480;5.706;2023-12-28T01:46:58;10.20;99.90
42715;DHT22;28351;51.480;5.706;2023-12-28T01:49:25;10.20;99.90
42715;DHT22;28351;51.480;5.706;2023-12-28T01:51:51;10.20;99.90
42715;DHT22;28351;51.480;5.706;2023-12-28T01:54:20;10.20;99.90
42715;DHT22;28351;51.480;5.706;2023-12-28T01:56:46;10.20;99.90
42715;DHT22;28351;51.480;5.706;2023-12-28T01:59:12;10.20;99.90
42715;DHT22;28351;51.480;5.706;2023-12-28T02:01:38;10.20;99.90
42715;DHT22;28351;51.480;5.706;2023-12-28T02:04:04;10.20;99.90
42715;DHT22;28351;51.480;5.706;2023-12-28T02:06:31;10.10;99.90
42715;DHT22;28351;51.480;5.706;2023-12-28T02:08:56;10.10;99.90
42715;DHT22;28351;51.480;5.706;2023-12-28T02:11:22;10.10;99.90
42715;DHT22;28351;51.480;5.706;2023-12-28T02:13:48;10.10;99.90
42715;DHT22;28351;51.480;5.706;2023-12-28T02:16:21;10.10;99.90
42715;DHT22;28351;51.480;5.706;2023-12-28T02:19:07;10.10;99.90
42715;DHT22;28351;51.480;5.706;2023-12-28T02:21:37;10.10;99.90
42715;DHT22;28351;51.480;5.706;2023-12-28T02:24:08;10.10;99.90
42715;DHT22;28351;51.480;5.706;2023-12-28T02:26:34;10.00;99.90
42715;DHT22;28351;51.480;5.706;2023-12-28T02:29:05;9.90;99.90
42715;DHT22;28351;51.480;5.706;2023-12-28T02:31:37;9.90;99.90
42715;DHT22;28351;51.480;5.706;2023-12-28T02:34:13;9.80;99.90
42715;DHT22;28351;51.480;5.706;2023-12-28T02:36:44;9.80;99.90
42715;DHT22;28351;51.480;5.706;2023-12-28T02:39:14;9.80;99.90
42715;DHT22;28351;51.480;5.706;2023-12-28T02:41:46;9.70;99.90
42715;DHT22;28351;51.480;5.706;2023-12-28T02:44:12;9.70;99.90
42715;DHT22;28351;51.480;5.706;2023-12-28T02:46:38;9.70;99.90
42715;DHT22;28351;51.480;5.706;2023-12-28T02:49:12;9.60;99.90
42715;DHT22;28351;51.480;5.706;2023-12-28T02:51:38;9.60;99.90
42715;DHT22;28351;51.480;5.706;2023-12-28T02:54:18;9.60;99.90
42715;DHT22;28351;51.480;5.706;2023-12-28T02:56:50;9.60;99.90
42715;DHT22;28351;51.480;5.706;2023-12-28T02:59:15;9.70;99.90
42715;DHT22;28351;51.480;5.706;2023-12-28T03:01:56;9.70;99.90
42715;DHT22;28351;51.480;5.706;2023-12-28T03:04:25;9.60;99.90
42715;DHT22;28351;51.480;5.706;2023-12-28T03:06:50;9.50;99.90
42715;DHT22;28351;51.480;5.706;2023-12-28T03:09:16;9.50;99.90
42715;DHT22;28351;51.480;5.706;2023-12-28T03:11:48;9.50;99.90
42715;DHT22;28351;51.480;5.706;2023-12-28T03:14:14;9.60;99.90
42715;DHT22;28351;51.480;5.706;2023-12-28T03:16:39;9.60;99.90
42715;DHT22;28351;51.480;5.706;2023-12-28T03:19:15;9.70;99.90
42715;DHT22;28351;51.480;5.706;2023-12-28T03:21:44;9.80;99.90
42715;DHT22;28351;51.480;5.706;2023-12-28T03:24:09;9.70;99.90
42715;DHT22;28351;51.480;5.706;2023-12-28T03:26:39;9.70;99.90
42715;DHT22;28351;51.480;5.706;2023-12-28T03:29:08;9.70;99.90
42715;DHT22;28351;51.480;5.706;2023-12-28T03:31:39;9.60;99.90
42715;DHT22;28351;51.480;5.706;2023-12-28T03:34:05;9.50;99.90
42715;DHT22;28351;51.480;5.706;2023-12-28T03:36:31;9.50;99.90
42715;DHT22;28351;51.480;5.706;2023-12-28T03:38:57;9.50;99.90
42715;DHT22;28351;51.480;5.706;2023-12-28T03:41:27;9.50;99.90
42715;DHT22;28351;51.480;5.706;2023-12-28T03:43:54;9.40;99.90
42715;DHT22;28351;51.480;5.706;2023-12-28T03:46:22;9.40;99.90
42715;DHT22;28351;51.480;5.706;2023-12-28T03:48:48;9.60;99.90
42715;DHT22;28351;51.480;5.706;2023-12-28T03:51:20;9.60;99.90
42715;DHT22;28351;51.480;5.706;2023-12-28T03:53:50;9.60;99.90
42715;DHT22;28351;51.480;5.706;2023-12-28T03:56:27;9.60;99.90
42715;DHT22;28351;51.480;5.706;2023-12-28T03:58:53;9.60;99.90
42715;DHT22;28351;51.480;5.706;2023-12-28T04:01:22;9.60;99.90
42715;DHT22;28351;51.480;5.706;2023-12-28T04:03:49;9.70;99.90
42715;DHT22;28351;51.480;5.706;2023-12-28T04:06:15;9.80;99.90
42715;DHT22;28351;51.480;5.706;2023-12-28T04:08:42;9.80;99.90
42715;DHT22;28351;51.480;5.706;2023-12-28T04:11:11;9.80;99.90
42715;DHT22;28351;51.480;5.706;2023-12-28T04:13:38;9.70;99.90
42715;DHT22;28351;51.480;5.706;2023-12-28T04:16:07;9.70;99.90
42715;DHT22;28351;51.480;5.706;2023-12-28T04:18:44;9.70;99.90
42715;DHT22;28351;51.480;5.706;2023-12-28T04:21:17;9.80;99.90
42715;DHT22;28351;51.480;5.706;2023-12-28T04:23:48;9.80;99.90
42715;DHT22;28351;51.480;5.706;2023-12-28T04:26:20;9.80;99.90
42715;DHT22;28351;51.480;5.706;2023-12-28T04:28:47;9.70;99.90
42715;DHT22;28351;51.480;5.706;2023-12-28T04:31:17;9.90;99.90
42715;DHT22;28351;51.480;5.706;2023-12-28T04:33:45;9.90;99.90
42715;DHT22;28351;51.480;5.706;2023-12-28T04:36:11;9.90;99.90
42715;DHT22;28351;51.480;5.706;2023-12-28T04:38:36;9.90;99.90
42715;DHT22;28351;51.480;5.706;2023-12-28T04:41:05;9.90;99.90
42715;DHT22;28351;51.480;5.706;2023-12-28T04:43:40;9.80;99.90
42715;DHT22;28351;51.480;5.706;2023-12-28T04:46:11;9.80;99.90
42715;DHT22;28351;51.480;5.706;2023-12-28T04:48:41;9.80;99.90
42715;DHT22;28351;51.480;5.706;2023-12-28T04:51:11;9.80;99.90
42715;DHT22;28351;51.480;5.706;2023-12-28T04:53:39;9.90;99.90
42715;DHT22;28351;51.480;5.706;2023-12-28T04:56:06;9.90;99.90
42715;DHT22;28351;51.480;5.706;2023-12-28T04:58:32;9.90;99.90
42715;DHT22;28351;51.480;5.706;2023-12-28T05:01:01;9.90;99.90
42715;DHT22;28351;51.480;5.706;2023-12-28T05:03:27;9.90;99.90
42715;DHT22;28351;51.480;5.706;2023-12-28T05:05:55;9.90;99.90
42715;DHT22;28351;51.480;5.706;2023-12-28T05:08:20;9.90;99.90
42715;DHT22;28351;51.480;5.706;2023-12-28T05:10:58;9.90;99.90
42715;DHT22;28351;51.480;5.706;2023-12-28T05:13:24;9.90;99.90
42715;DHT22;28351;51.480;5.706;2023-12-28T05:15:52;10.00;99.90
42715;DHT22;28351;51.480;5.706;2023-12-28T05:18:19;10.00;99.90
42715;DHT22;28351;51.480;5.706;2023-12-28T05:20:56;10.00;99.90
42715;DHT22;28351;51.480;5.706;2023-12-28T05:23:25;10.10;99.90
42715;DHT22;28351;51.480;5.706;2023-12-28T05:25:52;10.30;99.90
42715;DHT22;28351;51.480;5.706;2023-12-28T05:28:18;10.40;99.90
42715;DHT22;28351;51.480;5.706;2023-12-28T05:30:53;10.40;99.90
42715;DHT22;28351;51.480;5.706;2023-12-28T05:33:18;10.40;99.90
42715;DHT22;28351;51.480;5.706;2023-12-28T05:35:44;10.50;99.90
42715;DHT22;28351;51.480;5.706;2023-12-28T05:38:10;10.50;99.90
42715;DHT22;28351;51.480;5.706;2023-12-28T05:40:35;10.50;99.90
42715;DHT22;28351;51.480;5.706;2023-12-28T05:43:01;10.40;99.90
42715;DHT22;28351;51.480;5.706;2023-12-28T05:45:27;10.30;99.90
42715;DHT22;28351;51.480;5.706;2023-12-28T05:47:55;10.40;99.90
42715;DHT22;28351;51.480;5.706;2023-12-28T05:50:25;10.40;99.90
42715;DHT22;28351;51.480;5.706;2023-12-28T05:52:52;10.30;99.90
42715;DHT22;28351;51.480;5.706;2023-12-28T05:55:23;10.20;99.90
42715;DHT22;28351;51.480;5.706;2023-12-28T05:57:50;10.20;99.90
42715;DHT22;28351;51.480;5.706;2023-12-28T06:00:16;10.20;99.90
42715;DHT22;28351;51.480;5.706;2023-12-28T06:02:46;10.30;99.90
42715;DHT22;28351;51.480;5.706;2023-12-28T06:05:17;10.30;99.90
42715;DHT22;28351;51.480;5.706;2023-12-28T06:07:42;10.30;99.90
42715;DHT22;28351;51.480;5.706;2023-12-28T06:10:09;10.30;99.90
42715;DHT22;28351;51.480;5.706;2023-12-28T06:12:38;10.40;99.90
42715;DHT22;28351;51.480;5.706;2023-12-28T06:15:04;10.30;99.90
42715;DHT22;28351;51.480;5.706;2023-12-28T06:17:30;10.30;99.90
42715;DHT22;28351;51.480;5.706;2023-12-28T06:19:56;10.20;99.90
42715;DHT22;28351;51.480;5.706;2023-12-28T06:22:25;10.20;99.90
42715;DHT22;28351;51.480;5.706;2023-12-28T06:24:59;10.20;99.90
42715;DHT22;28351;51.480;5.706;2023-12-28T06:27:37;10.30;99.90
42715;DHT22;28351;51.480;5.706;2023-12-28T06:30:03;10.40;99.90
42715;DHT22;28351;51.480;5.706;2023-12-28T06:32:34;10.40;99.90
42715;DHT22;28351;51.480;5.706;2023-12-28T06:35:00;10.40;99.90
42715;DHT22;28351;51.480;5.706;2023-12-28T06:37:43;10.50;99.90
42715;DHT22;28351;51.480;5.706;2023-12-28T06:40:09;10.50;99.90
42715;DHT22;28351;51.480;5.706;2023-12-28T06:42:36;10.50;99.90
42715;DHT22;28351;51.480;5.706;2023-12-28T06:45:02;10.60;99.90
42715;DHT22;28351;51.480;5.706;2023-12-28T06:47:35;10.50;99.90
42715;DHT22;28351;51.480;5.706;2023-12-28T06:50:01;10.50;99.90
42715;DHT22;28351;51.480;5.706;2023-12-28T06:52:27;10.60;99.90
42715;DHT22;28351;51.480;5.706;2023-12-28T06:54:54;10.60;99.90
42715;DHT22;28351;51.480;5.706;2023-12-28T06:57:20;10.70;99.90
42715;DHT22;28351;51.480;5.706;2023-12-28T06:59:45;10.70;99.90
42715;DHT22;28351;51.480;5.706;2023-12-28T07:02:17;10.60;99.90
42715;DHT22;28351;51.480;5.706;2023-12-28T07:04:48;10.60;99.90
42715;DHT22;28351;51.480;5.706;2023-12-28T07:07:14;10.60;99.90
42715;DHT22;28351;51.480;5.706;2023-12-28T07:09:40;10.60;99.90
42715;DHT22;28351;51.480;5.706;2023-12-28T07:12:10;10.50;99.90
42715;DHT22;28351;51.480;5.706;2023-12-28T07:14:39;10.50;99.90
42715;DHT22;28351;51.480;5.706;2023-12-28T07:17:05;10.60;99.90
42715;DHT22;28351;51.480;5.706;2023-12-28T07:19:31;10.50;99.90
42715;DHT22;28351;51.480;5.706;2023-12-28T07:21:57;10.50;99.90
42715;DHT22;28351;51.480;5.706;2023-12-28T07:24:34;10.50;99.90
42715;DHT22;28351;51.480;5.706;2023-12-28T07:27:03;10.50;99.90
42715;DHT22;28351;51.480;5.706;2023-12-28T07:29:35;10.50;99.90
42715;DHT22;28351;51.480;5.706;2023-12-28T07:32:02;10.50;99.90
42715;DHT22;28351;51.480;5.706;2023-12-28T07:34:29;10.40;99.90
42715;DHT22;28351;51.480;5.706;2023-12-28T07:36:55;10.30;99.90
42715;DHT22;28351;51.480;5.706;2023-12-28T07:39:20;10.30;99.90
42715;DHT22;28351;51.480;5.706;2023-12-28T07:41:46;10.20;99.90
42715;DHT22;28351;51.480;5.706;2023-12-28T07:44:21;10.30;99.90
42715;DHT22;28351;51.480;5.706;2023-12-28T07:46:48;10.30;99.90
42715;DHT22;28351;51.480;5.706;2023-12-28T07:49:14;10.30;99.90
42715;DHT22;28351;51.480;5.706;2023-12-28T07:51:39;10.20;99.90
42715;DHT22;28351;51.480;5.706;2023-12-28T07:54:06;10.20;99.90
42715;DHT22;28351;51.480;5.706;2023-12-28T07:56:36;10.30;99.90
42715;DHT22;28351;51.480;5.706;2023-12-28T07:59:02;10.40;99.90
42715;DHT22;28351;51.480;5.706;2023-12-28T08:01:38;10.40;99.90
42715;DHT22;28351;51.480;5.706;2023-12-28T08:04:03;10.40;99.90
42715;DHT22;28351;51.480;5.706;2023-12-28T08:06:34;10.30;99.90
42715;DHT22;28351;51.480;5.706;2023-12-28T08:09:03;10.30;99.90
42715;DHT22;28351;51.480;5.706;2023-12-28T08:11:32;10.30;99.90
42715;DHT22;28351;51.480;5.706;2023-12-28T08:13:57;10.40;99.90
42715;DHT22;28351;51.480;5.706;2023-12-28T08:16:23;10.40;99.90
42715;DHT22;28351;51.480;5.706;2023-12-28T08:18:49;10.40;99.90
42715;DHT22;28351;51.480;5.706;2023-12-28T08:21:17;10.50;99.90
42715;DHT22;28351;51.480;5.706;2023-12-28T08:23:43;10.50;99.90
42715;DHT22;28351;51.480;5.706;2023-12-28T08:26:18;10.50;99.90
42715;DHT22;28351;51.480;5.706;2023-12-28T08:28:43;10.50;99.90
42715;DHT22;28351;51.480;5.706;2023-12-28T08:31:09;10.50;99.90
42715;DHT22;28351;51.480;5.706;2023-12-28T08:33:36;10.50;99.90
42715;DHT22;28351;51.480;5.706;2023-12-28T08:36:04;10.60;99.90
42715;DHT22;28351;51.480;5.706;2023-12-28T08:38:30;10.60;99.90
42715;DHT22;28351;51.480;5.706;2023-12-28T08:40:56;10.60;99.90
42715;DHT22;28351;51.480;5.706;2023-12-28T08:43:22;10.60;99.90
42715;DHT22;28351;51.480;5.706;2023-12-28T08:45:48;10.70;99.90
42715;DHT22;28351;51.480;5.706;2023-12-28T08:48:13;10.60;99.90
42715;DHT22;28351;51.480;5.706;2023-12-28T08:50:39;10.60;99.90
42715;DHT22;28351;51.480;5.706;2023-12-28T08:53:05;10.70;99.90
42715;DHT22;28351;51.480;5.706;2023-12-28T08:55:31;10.80;99.90
42715;DHT22;28351;51.480;5.706;2023-12-28T08:58:00;10.70;99.90
42715;DHT22;28351;51.480;5.706;2023-12-28T09:00:30;10.80;99.90
42715;DHT22;28351;51.480;5.706;2023-12-28T09:02:59;10.80;99.90
42715;DHT22;28351;51.480;5.706;2023-12-28T09:05:25;10.80;99.90
42715;DHT22;28351;51.480;5.706;2023-12-28T09:07:51;10.90;99.90
42715;DHT22;28351;51.480;5.706;2023-12-28T09:10:16;10.90;99.90
42715;DHT22;28351;51.480;5.706;2023-12-28T09:12:42;10.80;99.90
42715;DHT22;28351;51.480;5.706;2023-12-28T09:15:08;10.90;99.90
42715;DHT22;28351;51.480;5.706;2023-12-28T09:17:36;10.90;99.90
42715;DHT22;28351;51.480;5.706;2023-12-28T09:20:05;10.90;99.90
42715;DHT22;28351;51.480;5.706;2023-12-28T09:22:32;10.90;99.90
42715;DHT22;28351;51.480;5.706;2023-12-28T09:24:57;10.80;99.90
42715;DHT22;28351;51.480;5.706;2023-12-28T09:27:23;10.80;99.90
42715;DHT22;28351;51.480;5.706;2023-12-28T09:29:48;10.80;99.90
42715;DHT22;28351;51.480;5.706;2023-12-28T09:32:14;10.80;99.90
42715;DHT22;28351;51.480;5.706;2023-12-28T09:34:42;10.80;99.90
42715;DHT22;28351;51.480;5.706;2023-12-28T09:37:08;10.80;99.90
42715;DHT22;28351;51.480;5.706;2023-12-28T09:39:41;10.80;99.90
42715;DHT22;28351;51.480;5.706;2023-12-28T09:42:17;10.80;99.90
42715;DHT22;28351;51.480;5.706;2023-12-28T09:44:49;10.80;99.90
42715;DHT22;28351;51.480;5.706;2023-12-28T09:47:21;10.90;99.90
42715;DHT22;28351;51.480;5.706;2023-12-28T09:49:48;10.80;99.90
42715;DHT22;28351;51.480;5.706;2023-12-28T09:52:14;10.90;99.90
42715;DHT22;28351;51.480;5.706;2023-12-28T09:54:46;10.90;99.90
42715;DHT22;28351;51.480;5.706;2023-12-28T09:57:17;10.90;99.90
42715;DHT22;28351;51.480;5.706;2023-12-28T09:59:44;10.90;99.90
42715;DHT22;28351;51.480;5.706;2023-12-28T10:02:10;10.90;99.90
42715;DHT22;28351;51.480;5.706;2023-12-28T10:04:37;11.00;99.90
42715;DHT22;28351;51.480;5.706;2023-12-28T10:07:03;11.10;99.90
42715;DHT22;28351;51.480;5.706;2023-12-28T10:09:28;11.10;99.90
42715;DHT22;28351;51.480;5.706;2023-12-28T10:11:56;11.10;99.90
42715;DHT22;28351;51.480;5.706;2023-12-28T10:14:25;11.20;99.90
42715;DHT22;28351;51.480;5.706;2023-12-28T10:16:50;11.20;99.90
42715;DHT22;28351;51.480;5.706;2023-12-28T10:19:27;11.20;99.90
42715;DHT22;28351;51.480;5.706;2023-12-28T10:21:53;11.20;99.90
42715;DHT22;28351;51.480;5.706;2023-12-28T10:24:19;11.20;99.90
42715;DHT22;28351;51.480;5.706;2023-12-28T10:26:47;11.20;99.90
42715;DHT22;28351;51.480;5.706;2023-12-28T10:29:13;11.20;99.90
42715;DHT22;28351;51.480;5.706;2023-12-28T10:31:44;11.20;99.90
42715;DHT22;28351;51.480;5.706;2023-12-28T10:34:14;11.30;99.90
42715;DHT22;28351;51.480;5.706;2023-12-28T10:36:40;11.40;99.90
42715;DHT22;28351;51.480;5.706;2023-12-28T10:39:09;11.30;99.90
42715;DHT22;28351;51.480;5.706;2023-12-28T10:41:36;11.30;99.90
42715;DHT22;28351;51.480;5.706;2023-12-28T10:44:04;11.40;99.90
42715;DHT22;28351;51.480;5.706;2023-12-28T10:46:32;11.40;99.90
42715;DHT22;28351;51.480;5.706;2023-12-28T10:49:11;11.50;99.90
42715;DHT22;28351;51.480;5.706;2023-12-28T10:51:41;11.50;99.90
42715;DHT22;28351;51.480;5.706;2023-12-28T10:57:06;11.60;99.90
42715;DHT22;28351;51.480;5.706;2023-12-28T10:59:44;11.60;99.90
42715;DHT22;28351;51.480;5.706;2023-12-28T11:02:15;11.80;99.90
42715;DHT22;28351;51.480;5.706;2023-12-28T11:04:48;11.80;99.90
42715;DHT22;28351;51.480;5.706;2023-12-28T11:07:15;11.90;99.90
42715;DHT22;28351;51.480;5.706;2023-12-28T11:09:42;11.80;99.90
42715;DHT22;28351;51.480;5.706;2023-12-28T11:12:09;11.90;99.90
42715;DHT22;28351;51.480;5.706;2023-12-28T11:14:37;11.90;99.90
42715;DHT22;28351;51.480;5.706;2023-12-28T11:17:11;12.00;99.90
42715;DHT22;28351;51.480;5.706;2023-12-28T11:19:46;11.90;99.90
42715;DHT22;28351;51.480;5.706;2023-12-28T11:22:14;11.90;99.90
42715;DHT22;28351;51.480;5.706;2023-12-28T11:24:40;11.90;99.90
42715;DHT22;28351;51.480;5.706;2023-12-28T11:27:06;11.90;99.90
42715;DHT22;28351;51.480;5.706;2023-12-28T11:29:32;11.90;99.90
42715;DHT22;28351;51.480;5.706;2023-12-28T11:31:58;12.00;99.90
42715;DHT22;28351;51.480;5.706;2023-12-28T11:34:25;12.10;99.90
42715;DHT22;28351;51.480;5.706;2023-12-28T11:36:53;12.00;99.90
42715;DHT22;28351;51.480;5.706;2023-12-28T11:39:29;11.90;99.90
42715;DHT22;28351;51.480;5.706;2023-12-28T11:42:06;11.90;99.90
42715;DHT22;28351;51.480;5.706;2023-12-28T11:44:42;11.80;99.90
42715;DHT22;28351;51.480;5.706;2023-12-28T11:47:23;11.80;99.90
42715;DHT22;28351;51.480;5.706;2023-12-28T11:49:55;11.90;99.90
42715;DHT22;28351;51.480;5.706;2023-12-28T11:52:37;11.80;99.90
42715;DHT22;28351;51.480;5.706;2023-12-28T11:55:02;11.80;99.90
42715;DHT22;28351;51.480;5.706;2023-12-28T11:57:30;11.80;99.90
42715;DHT22;28351;51.480;5.706;2023-12-28T11:59:57;11.80;99.90
42715;DHT22;28351;51.480;5.706;2023-12-28T12:02:22;11.80;99.90
42715;DHT22;28351;51.480;5.706;2023-12-28T12:04:49;11.80;99.90
42715;DHT22;28351;51.480;5.706;2023-12-28T12:07:15;11.80;99.90
42715;DHT22;28351;51.480;5.706;2023-12-28T12:09:43;11.80;99.90
42715;DHT22;28351;51.480;5.706;2023-12-28T12:12:10;11.80;99.90
42715;DHT22;28351;51.480;5.706;2023-12-28T12:14:35;11.80;99.90
42715;DHT22;28351;51.480;5.706;2023-12-28T12:17:01;11.70;99.90
42715;DHT22;28351;51.480;5.706;2023-12-28T12:19:27;11.70;99.90
42715;DHT22;28351;51.480;5.706;2023-12-28T12:21:57;11.60;99.90
42715;DHT22;28351;51.480;5.706;2023-12-28T12:24:24;11.60;99.90
42715;DHT22;28351;51.480;5.706;2023-12-28T12:26:51;11.60;99.90
42715;DHT22;28351;51.480;5.706;2023-12-28T12:29:17;11.60;99.90
42715;DHT22;28351;51.480;5.706;2023-12-28T12:31:44;11.60;99.90
42715;DHT22;28351;51.480;5.706;2023-12-28T12:34:10;11.70;99.90
42715;DHT22;28351;51.480;5.706;2023-12-28T12:36:39;11.80;99.90
42715;DHT22;28351;51.480;5.706;2023-12-28T12:39:04;11.80;99.90
42715;DHT22;28351;51.480;5.706;2023-12-28T12:41:32;11.80;99.90
42715;DHT22;28351;51.480;5.706;2023-12-28T12:43:59;11.70;99.90
42715;DHT22;28351;51.480;5.706;2023-12-28T12:46:25;11.70;99.90
42715;DHT22;28351;51.480;5.706;2023-12-28T12:48:58;11.70;99.90
42715;DHT22;28351;51.480;5.706;2023-12-28T12:51:27;11.70;99.90
42715;DHT22;28351;51.480;5.706;2023-12-28T12:53:57;11.70;99.90
42715;DHT22;28351;51.480;5.706;2023-12-28T12:56:26;11.70;99.90
42715;DHT22;28351;51.480;5.706;2023-12-28T12:58:56;11.70;99.90
42715;DHT22;28351;51.480;5.706;2023-12-28T13:01:24;11.70;99.90
42715;DHT22;28351;51.480;5.706;2023-12-28T13:03:50;11.70;99.90
42715;DHT22;28351;51.480;5.706;2023-12-28T13:06:16;11.70;99.90
42715;DHT22;28351;51.480;5.706;2023-12-28T13:08:42;11.70;99.90
42715;DHT22;28351;51.480;5.706;2023-12-28T13:11:08;11.70;99.90
42715;DHT22;28351;51.480;5.706;2023-12-28T13:13:42;11.80;99.90
42715;DHT22;28351;51.480;5.706;2023-12-28T13:16:08;11.70;99.90
42715;DHT22;28351;51.480;5.706;2023-12-28T13:18:34;11.80;99.90
42715;DHT22;28351;51.480;5.706;2023-12-28T13:21:09;11.70;99.90
42715;DHT22;28351;51.480;5.706;2023-12-28T13:23:35;11.70;99.90
42715;DHT22;28351;51.480;5.706;2023-12-28T13:26:00;11.70;99.90
42715;DHT22;28351;51.480;5.706;2023-12-28T13:28:26;11.70;99.90
42715;DHT22;28351;51.480;5.706;2023-12-28T13:30:51;11.70;99.90
42715;DHT22;28351;51.480;5.706;2023-12-28T13:33:21;11.70;99.90
42715;DHT22;28351;51.480;5.706;2023-12-28T13:35:47;11.70;99.90
42715;DHT22;28351;51.480;5.706;2023-12-28T13:38:12;11.80;99.90
42715;DHT22;28351;51.480;5.706;2023-12-28T13:40:38;11.80;99.90
42715;DHT22;28351;51.480;5.706;2023-12-28T13:43:03;11.80;99.90
42715;DHT22;28351;51.480;5.706;2023-12-28T13:45:29;11.80;99.90
42715;DHT22;28351;51.480;5.706;2023-12-28T13:47:55;11.80;99.90
42715;DHT22;28351;51.480;5.706;2023-12-28T13:50:20;11.80;99.90
42715;DHT22;28351;51.480;5.706;2023-12-28T13:52:49;11.80;99.90
42715;DHT22;28351;51.480;5.706;2023-12-28T13:55:14;11.80;99.90
42715;DHT22;28351;51.480;5.706;2023-12-28T13:57:41;11.80;99.90
42715;DHT22;28351;51.480;5.706;2023-12-28T14:00:08;11.80;99.90
42715;DHT22;28351;51.480;5.706;2023-12-28T14:02:34;11.80;99.90
42715;DHT22;28351;51.480;5.706;2023-12-28T14:05:00;11.80;99.90
42715;DHT22;28351;51.480;5.706;2023-12-28T14:07:25;11.80;99.90
42715;DHT22;28351;51.480;5.706;2023-12-28T14:09:57;11.80;99.90
42715;DHT22;28351;51.480;5.706;2023-12-28T14:12:23;11.80;99.90
42715;DHT22;28351;51.480;5.706;2023-12-28T14:14:48;11.80;99.90
42715;DHT22;28351;51.480;5.706;2023-12-28T14:17:24;11.70;99.90
42715;DHT22;28351;51.480;5.706;2023-12-28T14:19:50;11.70;99.90
42715;DHT22;28351;51.480;5.706;2023-12-28T14:22:15;11.80;99.90
42715;DHT22;28351;51.480;5.706;2023-12-28T14:24:48;11.80;99.90
42715;DHT22;28351;51.480;5.706;2023-12-28T14:27:17;11.70;99.90
42715;DHT22;28351;51.480;5.706;2023-12-28T14:29:45;11.60;99.90
42715;DHT22;28351;51.480;5.706;2023-12-28T14:32:17;11.60;99.90
42715;DHT22;28351;51.480;5.706;2023-12-28T14:34:42;11.50;99.90
42715;DHT22;28351;51.480;5.706;2023-12-28T14:37:08;11.50;99.90
42715;DHT22;28351;51.480;5.706;2023-12-28T14:39:34;11.50;99.90
42715;DHT22;28351;51.480;5.706;2023-12-28T14:42:01;11.50;99.90
42715;DHT22;28351;51.480;5.706;2023-12-28T14:44:29;11.50;99.90
42715;DHT22;28351;51.480;5.706;2023-12-28T14:46:54;11.50;99.90
42715;DHT22;28351;51.480;5.706;2023-12-28T14:49:20;11.40;99.90
42715;DHT22;28351;51.480;5.706;2023-12-28T14:51:45;11.40;99.90
42715;DHT22;28351;51.480;5.706;2023-12-28T14:54:17;11.40;99.90
42715;DHT22;28351;51.480;5.706;2023-12-28T14:56:42;11.40;99.90
42715;DHT22;28351;51.480;5.706;2023-12-28T14:59:08;11.40;99.90
42715;DHT22;28351;51.480;5.706;2023-12-28T15:01:34;11.40;99.90
42715;DHT22;28351;51.480;5.706;2023-12-28T15:03:59;11.40;99.90
42715;DHT22;28351;51.480;5.706;2023-12-28T15:06:25;11.40;99.90
42715;DHT22;28351;51.480;5.706;2023-12-28T15:08:50;11.40;99.90
42715;DHT22;28351;51.480;5.706;2023-12-28T15:11:16;11.40;99.90
42715;DHT22;28351;51.480;5.706;2023-12-28T15:13:42;11.30;99.90
42715;DHT22;28351;51.480;5.706;2023-12-28T15:16:08;11.30;99.90
42715;DHT22;28351;51.480;5.706;2023-12-28T15:18:35;11.30;99.90
42715;DHT22;28351;51.480;5.706;2023-12-28T15:21:01;11.30;99.90
42715;DHT22;28351;51.480;5.706;2023-12-28T15:23:27;11.20;99.90
42715;DHT22;28351;51.480;5.706;2023-12-28T15:25:56;11.20;99.90
42715;DHT22;28351;51.480;5.706;2023-12-28T15:28:21;11.20;99.90
42715;DHT22;28351;51.480;5.706;2023-12-28T15:30:49;11.20;99.90
42715;DHT22;28351;51.480;5.706;2023-12-28T15:33:16;11.10;99.90
42715;DHT22;28351;51.480;5.706;2023-12-28T15:35:42;11.20;99.90
42715;DHT22;28351;51.480;5.706;2023-12-28T15:38:08;11.10;99.90
42715;DHT22;28351;51.480;5.706;2023-12-28T15:40:33;11.10;99.90